sensor_id;sensor_type;location;lat;lon;timestamp;P1;durP1;ratioP1;P2;durP2;ratioP2
3597;SDS011;1813;52.016;8.714;2022-09-29T00:01:47;54.07;;;30.50;;
3597;SDS011;1813;52.016;8.714;2022-09-29T00:04:19;48.60;;;30.07;;
3597;SDS011;1813;52.016;8.714;2022-09-29T00:06:51;45.50;;;28.37;;
3597;SDS011;1813;52.016;8.714;2022-09-29T00:09:23;45.37;;;27.43;;
3597;SDS011;1813;52.016;8.714;2022-09-29T00:11:57;43.80;;;26.60;;
3597;SDS011;1813;52.016;8.714;2022-09-29T00:14:29;36.63;;;24.83;;
3597;SDS011;1813;52.016;8.714;2022-09-29T00:17:01;40.60;;;25.73;;
3597;SDS011;1813;52.016;8.714;2022-09-29T00:19:33;37.50;;;24.47;;
3597;SDS011;1813;52.016;8.714;2022-09-29T00:22:05;38.73;;;24.47;;
3597;SDS011;1813;52.016;8.714;2022-09-29T00:24:38;37.50;;;23.23;;
3597;SDS011;1813;52.016;8.714;2022-09-29T00:27:12;34.83;;;23.83;;
3597;SDS011;1813;52.016;8.714;2022-09-29T00:29:45;37.63;;;23.60;;
3597;SDS011;1813;52.016;8.714;2022-09-29T00:32:17;34.73;;;22.90;;
3597;SDS011;1813;52.016;8.714;2022-09-29T00:34:49;29.67;;;21.43;;
3597;SDS011;1813;52.016;8.714;2022-09-29T00:37:21;34.10;;;21.80;;
3597;SDS011;1813;52.016;8.714;2022-09-29T00:39:53;32.40;;;22.00;;
3597;SDS011;1813;52.016;8.714;2022-09-29T00:42:27;32.20;;;21.67;;
3597;SDS011;1813;52.016;8.714;2022-09-29T00:45:11;29.60;;;21.00;;
3597;SDS011;1813;52.016;8.714;2022-09-29T00:47:50;29.70;;;21.00;;
3597;SDS011;1813;52.016;8.714;2022-09-29T00:50:32;29.57;;;21.10;;
3597;SDS011;1813;52.016;8.714;2022-09-29T00:53:12;31.13;;;21.37;;
3597;SDS011;1813;52.016;8.714;2022-09-29T00:55:47;28.60;;;19.90;;
3597;SDS011;1813;52.016;8.714;2022-09-29T00:58:27;27.53;;;19.23;;
3597;SDS011;1813;52.016;8.714;2022-09-29T01:01:03;25.40;;;18.37;;
3597;SDS011;1813;52.016;8.714;2022-09-29T01:03:37;25.80;;;18.63;;
3597;SDS011;1813;52.016;8.714;2022-09-29T01:06:12;35.30;;;20.70;;
3597;SDS011;1813;52.016;8.714;2022-09-29T01:08:50;28.70;;;18.23;;
3597;SDS011;1813;52.016;8.714;2022-09-29T01:11:28;25.60;;;18.20;;
3597;SDS011;1813;52.016;8.714;2022-09-29T01:14:03;26.00;;;19.20;;
3597;SDS011;1813;52.016;8.714;2022-09-29T01:16:38;25.87;;;18.00;;
3597;SDS011;1813;52.016;8.714;2022-09-29T01:19:12;29.80;;;19.27;;
3597;SDS011;1813;52.016;8.714;2022-09-29T01:21:50;29.70;;;20.70;;
3597;SDS011;1813;52.016;8.714;2022-09-29T01:24:47;29.03;;;20.50;;
3597;SDS011;1813;52.016;8.714;2022-09-29T01:27:38;28.80;;;20.30;;
3597;SDS011;1813;52.016;8.714;2022-09-29T01:30:38;30.57;;;21.00;;
3597;SDS011;1813;52.016;8.714;2022-09-29T01:33:28;30.03;;;20.33;;
3597;SDS011;1813;52.016;8.714;2022-09-29T01:36:10;33.40;;;21.93;;
3597;SDS011;1813;52.016;8.714;2022-09-29T01:38:57;34.13;;;22.63;;
3597;SDS011;1813;52.016;8.714;2022-09-29T01:41:37;30.73;;;21.50;;
3597;SDS011;1813;52.016;8.714;2022-09-29T01:44:15;27.10;;;18.83;;
3597;SDS011;1813;52.016;8.714;2022-09-29T01:46:56;28.40;;;19.90;;
3597;SDS011;1813;52.016;8.714;2022-09-29T01:49:33;26.93;;;18.90;;
3597;SDS011;1813;52.016;8.714;2022-09-29T01:52:09;26.87;;;19.13;;
3597;SDS011;1813;52.016;8.714;2022-09-29T01:54:44;29.90;;;19.00;;
3597;SDS011;1813;52.016;8.714;2022-09-29T01:57:20;30.53;;;18.50;;
3597;SDS011;1813;52.016;8.714;2022-09-29T01:59:59;28.00;;;18.73;;
3597;SDS011;1813;52.016;8.714;2022-09-29T02:02:44;24.37;;;17.97;;
3597;SDS011;1813;52.016;8.714;2022-09-29T02:05:20;27.50;;;16.97;;
3597;SDS011;1813;52.016;8.714;2022-09-29T02:07:57;31.27;;;19.40;;
3597;SDS011;1813;52.016;8.714;2022-09-29T02:10:34;28.70;;;18.53;;
3597;SDS011;1813;52.016;8.714;2022-09-29T02:13:11;25.23;;;17.67;;
3597;SDS011;1813;52.016;8.714;2022-09-29T02:15:47;22.00;;;15.47;;
3597;SDS011;1813;52.016;8.714;2022-09-29T02:18:25;22.93;;;17.20;;
3597;SDS011;1813;52.016;8.714;2022-09-29T02:21:02;18.73;;;14.63;;
3597;SDS011;1813;52.016;8.714;2022-09-29T02:23:34;18.50;;;13.10;;
3597;SDS011;1813;52.016;8.714;2022-09-29T02:26:07;17.80;;;13.67;;
3597;SDS011;1813;52.016;8.714;2022-09-29T02:28:42;24.57;;;15.43;;
3597;SDS011;1813;52.016;8.714;2022-09-29T02:31:15;22.50;;;14.37;;
3597;SDS011;1813;52.016;8.714;2022-09-29T02:33:49;34.93;;;15.50;;
3597;SDS011;1813;52.016;8.714;2022-09-29T02:36:23;80.00;;;14.53;;
3597;SDS011;1813;52.016;8.714;2022-09-29T02:39:04;340.43;;;21.90;;
3597;SDS011;1813;52.016;8.714;2022-09-29T02:41:47;69.90;;;17.00;;
3597;SDS011;1813;52.016;8.714;2022-09-29T02:44:33;22.87;;;15.90;;
3597;SDS011;1813;52.016;8.714;2022-09-29T02:47:17;21.63;;;16.30;;
3597;SDS011;1813;52.016;8.714;2022-09-29T02:50:06;22.77;;;16.07;;
3597;SDS011;1813;52.016;8.714;2022-09-29T02:52:53;21.50;;;15.37;;
3597;SDS011;1813;52.016;8.714;2022-09-29T02:55:34;21.73;;;15.47;;
3597;SDS011;1813;52.016;8.714;2022-09-29T02:58:13;23.70;;;16.50;;
3597;SDS011;1813;52.016;8.714;2022-09-29T03:00:49;22.93;;;16.77;;
3597;SDS011;1813;52.016;8.714;2022-09-29T03:03:23;27.60;;;17.47;;
3597;SDS011;1813;52.016;8.714;2022-09-29T03:05:57;26.30;;;17.53;;
3597;SDS011;1813;52.016;8.714;2022-09-29T03:08:30;27.47;;;17.30;;
3597;SDS011;1813;52.016;8.714;2022-09-29T03:11:02;24.70;;;16.90;;
3597;SDS011;1813;52.016;8.714;2022-09-29T03:13:34;22.87;;;16.23;;
3597;SDS011;1813;52.016;8.714;2022-09-29T03:16:06;19.37;;;14.43;;
3597;SDS011;1813;52.016;8.714;2022-09-29T03:18:38;21.93;;;15.83;;
3597;SDS011;1813;52.016;8.714;2022-09-29T03:21:12;21.67;;;15.53;;
3597;SDS011;1813;52.016;8.714;2022-09-29T03:23:44;23.80;;;16.33;;
3597;SDS011;1813;52.016;8.714;2022-09-29T03:26:16;21.53;;;15.77;;
3597;SDS011;1813;52.016;8.714;2022-09-29T03:28:49;58.77;;;14.40;;
3597;SDS011;1813;52.016;8.714;2022-09-29T03:31:21;21.57;;;14.97;;
3597;SDS011;1813;52.016;8.714;2022-09-29T03:33:53;18.53;;;14.57;;
3597;SDS011;1813;52.016;8.714;2022-09-29T03:36:26;20.10;;;14.50;;
3597;SDS011;1813;52.016;8.714;2022-09-29T03:39:00;21.50;;;15.07;;
3597;SDS011;1813;52.016;8.714;2022-09-29T03:41:32;37.80;;;17.27;;
3597;SDS011;1813;52.016;8.714;2022-09-29T03:44:04;48.13;;;22.07;;
3597;SDS011;1813;52.016;8.714;2022-09-29T03:46:36;49.03;;;20.77;;
3597;SDS011;1813;52.016;8.714;2022-09-29T03:49:08;77.07;;;22.60;;
3597;SDS011;1813;52.016;8.714;2022-09-29T03:51:42;120.43;;;20.50;;
3597;SDS011;1813;52.016;8.714;2022-09-29T03:54:14;67.80;;;20.90;;
3597;SDS011;1813;52.016;8.714;2022-09-29T03:56:46;54.87;;;19.93;;
3597;SDS011;1813;52.016;8.714;2022-09-29T03:59:18;53.13;;;18.87;;
3597;SDS011;1813;52.016;8.714;2022-09-29T04:01:51;30.70;;;18.60;;
3597;SDS011;1813;52.016;8.714;2022-09-29T04:04:23;58.27;;;18.63;;
3597;SDS011;1813;52.016;8.714;2022-09-29T04:06:56;25.10;;;15.73;;
3597;SDS011;1813;52.016;8.714;2022-09-29T04:09:28;25.03;;;15.57;;
3597;SDS011;1813;52.016;8.714;2022-09-29T04:12:01;18.83;;;13.33;;
3597;SDS011;1813;52.016;8.714;2022-09-29T04:14:33;19.97;;;12.90;;
3597;SDS011;1813;52.016;8.714;2022-09-29T04:17:05;52.77;;;13.97;;
3597;SDS011;1813;52.016;8.714;2022-09-29T04:19:37;115.13;;;14.70;;
3597;SDS011;1813;52.016;8.714;2022-09-29T04:22:11;166.00;;;13.20;;
3597;SDS011;1813;52.016;8.714;2022-09-29T04:24:46;111.23;;;10.60;;
3597;SDS011;1813;52.016;8.714;2022-09-29T04:27:18;194.80;;;11.13;;
3597;SDS011;1813;52.016;8.714;2022-09-29T04:29:50;79.30;;;11.80;;
3597;SDS011;1813;52.016;8.714;2022-09-29T04:32:22;74.37;;;12.73;;
3597;SDS011;1813;52.016;8.714;2022-09-29T04:34:55;98.80;;;16.37;;
3597;SDS011;1813;52.016;8.714;2022-09-29T04:37:28;82.23;;;15.00;;
3597;SDS011;1813;52.016;8.714;2022-09-29T04:40:01;85.77;;;14.63;;
3597;SDS011;1813;52.016;8.714;2022-09-29T04:42:34;34.30;;;13.17;;
3597;SDS011;1813;52.016;8.714;2022-09-29T04:45:06;104.13;;;14.10;;
3597;SDS011;1813;52.016;8.714;2022-09-29T04:47:39;74.83;;;14.30;;
3597;SDS011;1813;52.016;8.714;2022-09-29T04:50:11;34.00;;;17.63;;
3597;SDS011;1813;52.016;8.714;2022-09-29T04:52:44;24.80;;;16.60;;
3597;SDS011;1813;52.016;8.714;2022-09-29T04:55:17;26.63;;;17.57;;
3597;SDS011;1813;52.016;8.714;2022-09-29T04:57:49;28.13;;;17.77;;
3597;SDS011;1813;52.016;8.714;2022-09-29T05:00:22;23.87;;;16.63;;
3597;SDS011;1813;52.016;8.714;2022-09-29T05:02:55;32.50;;;19.50;;
3597;SDS011;1813;52.016;8.714;2022-09-29T05:05:27;30.83;;;18.60;;
3597;SDS011;1813;52.016;8.714;2022-09-29T05:08:02;29.90;;;19.80;;
3597;SDS011;1813;52.016;8.714;2022-09-29T05:10:36;37.80;;;22.17;;
3597;SDS011;1813;52.016;8.714;2022-09-29T05:13:08;38.37;;;22.50;;
3597;SDS011;1813;52.016;8.714;2022-09-29T05:15:40;36.57;;;21.67;;
3597;SDS011;1813;52.016;8.714;2022-09-29T05:18:12;34.60;;;21.77;;
3597;SDS011;1813;52.016;8.714;2022-09-29T05:20:44;38.00;;;22.87;;
3597;SDS011;1813;52.016;8.714;2022-09-29T05:23:18;37.50;;;22.40;;
3597;SDS011;1813;52.016;8.714;2022-09-29T05:25:50;40.17;;;21.23;;
3597;SDS011;1813;52.016;8.714;2022-09-29T05:28:22;33.90;;;21.43;;
3597;SDS011;1813;52.016;8.714;2022-09-29T05:30:54;32.67;;;20.07;;
3597;SDS011;1813;52.016;8.714;2022-09-29T05:33:30;31.57;;;19.50;;
3597;SDS011;1813;52.016;8.714;2022-09-29T05:36:03;33.43;;;19.50;;
3597;SDS011;1813;52.016;8.714;2022-09-29T05:38:38;29.00;;;18.67;;
3597;SDS011;1813;52.016;8.714;2022-09-29T05:41:11;29.87;;;19.40;;
3597;SDS011;1813;52.016;8.714;2022-09-29T05:43:43;33.23;;;18.80;;
3597;SDS011;1813;52.016;8.714;2022-09-29T05:46:15;30.40;;;16.20;;
3597;SDS011;1813;52.016;8.714;2022-09-29T05:48:48;26.23;;;16.43;;
3597;SDS011;1813;52.016;8.714;2022-09-29T05:51:22;27.33;;;18.10;;
3597;SDS011;1813;52.016;8.714;2022-09-29T05:53:57;27.57;;;16.57;;
3597;SDS011;1813;52.016;8.714;2022-09-29T05:56:30;29.43;;;17.60;;
3597;SDS011;1813;52.016;8.714;2022-09-29T05:59:02;25.40;;;16.97;;
3597;SDS011;1813;52.016;8.714;2022-09-29T06:01:35;29.00;;;17.50;;
3597;SDS011;1813;52.016;8.714;2022-09-29T06:04:07;28.87;;;18.00;;
3597;SDS011;1813;52.016;8.714;2022-09-29T06:06:39;22.10;;;13.13;;
3597;SDS011;1813;52.016;8.714;2022-09-29T06:09:13;29.23;;;17.43;;
3597;SDS011;1813;52.016;8.714;2022-09-29T06:11:45;31.10;;;19.10;;
3597;SDS011;1813;52.016;8.714;2022-09-29T06:14:17;24.93;;;16.37;;
3597;SDS011;1813;52.016;8.714;2022-09-29T06:16:49;20.87;;;14.90;;
3597;SDS011;1813;52.016;8.714;2022-09-29T06:19:21;23.50;;;15.87;;
3597;SDS011;1813;52.016;8.714;2022-09-29T06:21:53;24.97;;;15.90;;
3597;SDS011;1813;52.016;8.714;2022-09-29T06:24:27;26.20;;;16.27;;
3597;SDS011;1813;52.016;8.714;2022-09-29T06:26:59;27.20;;;17.13;;
3597;SDS011;1813;52.016;8.714;2022-09-29T06:29:31;31.33;;;18.00;;
3597;SDS011;1813;52.016;8.714;2022-09-29T06:32:03;33.80;;;21.43;;
3597;SDS011;1813;52.016;8.714;2022-09-29T06:34:35;34.87;;;21.37;;
3597;SDS011;1813;52.016;8.714;2022-09-29T06:37:27;43.53;;;24.27;;
3597;SDS011;1813;52.016;8.714;2022-09-29T06:40:06;52.80;;;26.50;;
3597;SDS011;1813;52.016;8.714;2022-09-29T06:42:41;45.90;;;26.00;;
3597;SDS011;1813;52.016;8.714;2022-09-29T06:45:13;69.03;;;32.47;;
3597;SDS011;1813;52.016;8.714;2022-09-29T06:47:45;59.40;;;31.50;;
3597;SDS011;1813;52.016;8.714;2022-09-29T06:50:17;55.80;;;30.40;;
3597;SDS011;1813;52.016;8.714;2022-09-29T06:52:49;63.20;;;31.80;;
3597;SDS011;1813;52.016;8.714;2022-09-29T06:55:23;49.30;;;25.93;;
3597;SDS011;1813;52.016;8.714;2022-09-29T06:57:55;40.77;;;23.93;;
3597;SDS011;1813;52.016;8.714;2022-09-29T07:00:27;36.50;;;24.10;;
3597;SDS011;1813;52.016;8.714;2022-09-29T07:02:59;35.93;;;22.67;;
3597;SDS011;1813;52.016;8.714;2022-09-29T07:05:31;36.30;;;23.60;;
3597;SDS011;1813;52.016;8.714;2022-09-29T07:08:05;33.50;;;21.43;;
3597;SDS011;1813;52.016;8.714;2022-09-29T07:10:38;28.13;;;19.90;;
3597;SDS011;1813;52.016;8.714;2022-09-29T07:13:11;28.83;;;20.00;;
3597;SDS011;1813;52.016;8.714;2022-09-29T07:15:43;28.30;;;19.63;;
3597;SDS011;1813;52.016;8.714;2022-09-29T07:18:17;22.87;;;17.00;;
3597;SDS011;1813;52.016;8.714;2022-09-29T07:20:49;28.23;;;17.63;;
3597;SDS011;1813;52.016;8.714;2022-09-29T07:23:21;25.03;;;18.93;;
3597;SDS011;1813;52.016;8.714;2022-09-29T07:25:55;24.03;;;16.90;;
3597;SDS011;1813;52.016;8.714;2022-09-29T07:28:28;22.83;;;17.17;;
3597;SDS011;1813;52.016;8.714;2022-09-29T07:31:01;24.30;;;17.00;;
3597;SDS011;1813;52.016;8.714;2022-09-29T07:33:35;20.10;;;15.93;;
3597;SDS011;1813;52.016;8.714;2022-09-29T07:36:07;24.40;;;17.20;;
3597;SDS011;1813;52.016;8.714;2022-09-29T07:38:39;23.00;;;16.00;;
3597;SDS011;1813;52.016;8.714;2022-09-29T07:41:13;22.37;;;17.00;;
3597;SDS011;1813;52.016;8.714;2022-09-29T07:43:45;21.37;;;16.70;;
3597;SDS011;1813;52.016;8.714;2022-09-29T07:46:18;20.97;;;16.60;;
3597;SDS011;1813;52.016;8.714;2022-09-29T07:48:51;22.40;;;15.80;;
3597;SDS011;1813;52.016;8.714;2022-09-29T07:51:23;21.70;;;15.73;;
3597;SDS011;1813;52.016;8.714;2022-09-29T07:53:59;19.80;;;15.43;;
3597;SDS011;1813;52.016;8.714;2022-09-29T07:56:33;24.60;;;16.00;;
3597;SDS011;1813;52.016;8.714;2022-09-29T07:59:05;20.80;;;15.93;;
3597;SDS011;1813;52.016;8.714;2022-09-29T08:01:37;20.63;;;15.03;;
3597;SDS011;1813;52.016;8.714;2022-09-29T08:04:10;20.97;;;15.67;;
3597;SDS011;1813;52.016;8.714;2022-09-29T08:06:42;22.00;;;16.17;;
3597;SDS011;1813;52.016;8.714;2022-09-29T08:09:14;23.77;;;16.63;;
3597;SDS011;1813;52.016;8.714;2022-09-29T08:11:47;20.63;;;15.27;;
3597;SDS011;1813;52.016;8.714;2022-09-29T08:14:19;23.23;;;17.77;;
3597;SDS011;1813;52.016;8.714;2022-09-29T08:16:52;20.60;;;15.40;;
3597;SDS011;1813;52.016;8.714;2022-09-29T08:19:24;21.53;;;15.33;;
3597;SDS011;1813;52.016;8.714;2022-09-29T08:21:58;23.93;;;15.93;;
3597;SDS011;1813;52.016;8.714;2022-09-29T08:24:30;21.80;;;15.37;;
3597;SDS011;1813;52.016;8.714;2022-09-29T08:27:03;22.43;;;16.17;;
3597;SDS011;1813;52.016;8.714;2022-09-29T08:29:36;22.97;;;15.80;;
3597;SDS011;1813;52.016;8.714;2022-09-29T08:32:08;19.40;;;14.77;;
3597;SDS011;1813;52.016;8.714;2022-09-29T08:34:40;22.80;;;16.60;;
3597;SDS011;1813;52.016;8.714;2022-09-29T08:37:12;23.30;;;16.77;;
3597;SDS011;1813;52.016;8.714;2022-09-29T08:39:44;20.83;;;16.23;;
3597;SDS011;1813;52.016;8.714;2022-09-29T08:42:20;22.20;;;16.27;;
3597;SDS011;1813;52.016;8.714;2022-09-29T08:44:59;25.80;;;17.23;;
3597;SDS011;1813;52.016;8.714;2022-09-29T08:47:35;23.77;;;16.33;;
3597;SDS011;1813;52.016;8.714;2022-09-29T08:50:11;23.50;;;16.83;;
3597;SDS011;1813;52.016;8.714;2022-09-29T08:52:59;31.33;;;16.57;;
3597;SDS011;1813;52.016;8.714;2022-09-29T08:55:39;25.33;;;16.73;;
3597;SDS011;1813;52.016;8.714;2022-09-29T08:58:15;21.57;;;15.80;;
3597;SDS011;1813;52.016;8.714;2022-09-29T09:00:50;21.47;;;15.10;;
3597;SDS011;1813;52.016;8.714;2022-09-29T09:03:37;21.27;;;15.63;;
3597;SDS011;1813;52.016;8.714;2022-09-29T09:06:35;19.87;;;15.13;;
3597;SDS011;1813;52.016;8.714;2022-09-29T09:09:38;25.53;;;15.80;;
3597;SDS011;1813;52.016;8.714;2022-09-29T09:12:25;19.30;;;15.47;;
3597;SDS011;1813;52.016;8.714;2022-09-29T09:15:24;26.10;;;18.27;;
3597;SDS011;1813;52.016;8.714;2022-09-29T09:21:07;26.93;;;18.80;;
3597;SDS011;1813;52.016;8.714;2022-09-29T09:23:45;23.90;;;16.70;;
3597;SDS011;1813;52.016;8.714;2022-09-29T09:26:25;22.63;;;16.30;;
3597;SDS011;1813;52.016;8.714;2022-09-29T09:29:04;25.53;;;17.37;;
3597;SDS011;1813;52.016;8.714;2022-09-29T09:31:43;20.60;;;15.63;;
3597;SDS011;1813;52.016;8.714;2022-09-29T09:34:21;19.00;;;14.73;;
3597;SDS011;1813;52.016;8.714;2022-09-29T09:37:00;21.90;;;14.90;;
3597;SDS011;1813;52.016;8.714;2022-09-29T09:39:36;19.17;;;14.57;;
3597;SDS011;1813;52.016;8.714;2022-09-29T09:42:14;21.43;;;14.70;;
3597;SDS011;1813;52.016;8.714;2022-09-29T09:44:50;18.20;;;13.30;;
3597;SDS011;1813;52.016;8.714;2022-09-29T09:47:27;18.40;;;14.43;;
3597;SDS011;1813;52.016;8.714;2022-09-29T09:50:02;20.10;;;13.47;;
3597;SDS011;1813;52.016;8.714;2022-09-29T09:52:43;18.53;;;13.03;;
3597;SDS011;1813;52.016;8.714;2022-09-29T09:55:18;16.93;;;13.20;;
3597;SDS011;1813;52.016;8.714;2022-09-29T09:57:57;16.30;;;12.17;;
3597;SDS011;1813;52.016;8.714;2022-09-29T10:00:39;18.67;;;14.17;;
3597;SDS011;1813;52.016;8.714;2022-09-29T10:03:16;13.87;;;11.87;;
3597;SDS011;1813;52.016;8.714;2022-09-29T10:05:49;16.40;;;12.80;;
3597;SDS011;1813;52.016;8.714;2022-09-29T10:08:22;18.43;;;12.27;;
3597;SDS011;1813;52.016;8.714;2022-09-29T10:10:56;15.53;;;12.60;;
3597;SDS011;1813;52.016;8.714;2022-09-29T10:13:30;13.97;;;11.40;;
3597;SDS011;1813;52.016;8.714;2022-09-29T10:16:05;16.40;;;12.00;;
3597;SDS011;1813;52.016;8.714;2022-09-29T10:18:45;13.80;;;10.43;;
3597;SDS011;1813;52.016;8.714;2022-09-29T10:21:22;13.97;;;10.73;;
3597;SDS011;1813;52.016;8.714;2022-09-29T10:24:18;11.90;;;9.30;;
3597;SDS011;1813;52.016;8.714;2022-09-29T10:26:53;13.70;;;10.67;;
3597;SDS011;1813;52.016;8.714;2022-09-29T10:29:28;16.90;;;10.80;;
3597;SDS011;1813;52.016;8.714;2022-09-29T10:32:04;18.10;;;10.20;;
3597;SDS011;1813;52.016;8.714;2022-09-29T10:34:39;11.20;;;9.03;;
3597;SDS011;1813;52.016;8.714;2022-09-29T10:37:18;10.73;;;9.03;;
3597;SDS011;1813;52.016;8.714;2022-09-29T10:40:00;9.37;;;8.33;;
3597;SDS011;1813;52.016;8.714;2022-09-29T10:42:35;8.07;;;6.90;;
3597;SDS011;1813;52.016;8.714;2022-09-29T10:45:11;7.70;;;6.50;;
3597;SDS011;1813;52.016;8.714;2022-09-29T10:47:46;9.60;;;7.80;;
3597;SDS011;1813;52.016;8.714;2022-09-29T10:50:47;11.47;;;8.50;;
3597;SDS011;1813;52.016;8.714;2022-09-29T10:53:22;11.27;;;8.60;;
3597;SDS011;1813;52.016;8.714;2022-09-29T10:55:59;11.30;;;8.47;;
3597;SDS011;1813;52.016;8.714;2022-09-29T10:58:39;11.20;;;7.23;;
3597;SDS011;1813;52.016;8.714;2022-09-29T11:01:13;9.07;;;7.20;;
3597;SDS011;1813;52.016;8.714;2022-09-29T11:03:49;8.07;;;6.93;;
3597;SDS011;1813;52.016;8.714;2022-09-29T11:06:33;8.50;;;6.30;;
3597;SDS011;1813;52.016;8.714;2022-09-29T11:09:25;7.43;;;6.60;;
3597;SDS011;1813;52.016;8.714;2022-09-29T11:12:00;7.77;;;6.50;;
3597;SDS011;1813;52.016;8.714;2022-09-29T11:14:38;7.37;;;6.17;;
3597;SDS011;1813;52.016;8.714;2022-09-29T11:17:19;9.47;;;5.73;;
3597;SDS011;1813;52.016;8.714;2022-09-29T11:19:53;7.77;;;6.20;;
3597;SDS011;1813;52.016;8.714;2022-09-29T11:28:58;6.33;;;4.60;;
3597;SDS011;1813;52.016;8.714;2022-09-29T11:31:46;7.47;;;5.43;;
3597;SDS011;1813;52.016;8.714;2022-09-29T11:37:39;5.83;;;4.10;;
3597;SDS011;1813;52.016;8.714;2022-09-29T11:40:22;5.83;;;4.80;;
3597;SDS011;1813;52.016;8.714;2022-09-29T11:43:05;5.60;;;4.27;;
3597;SDS011;1813;52.016;8.714;2022-09-29T11:45:52;5.30;;;3.93;;
3597;SDS011;1813;52.016;8.714;2022-09-29T11:51:37;4.50;;;3.90;;
3597;SDS011;1813;52.016;8.714;2022-09-29T11:54:29;4.27;;;3.70;;
3597;SDS011;1813;52.016;8.714;2022-09-29T11:57:13;5.43;;;3.40;;
3597;SDS011;1813;52.016;8.714;2022-09-29T11:59:56;12.30;;;3.80;;
3597;SDS011;1813;52.016;8.714;2022-09-29T12:02:42;3.40;;;3.10;;
3597;SDS011;1813;52.016;8.714;2022-09-29T12:05:28;4.70;;;3.10;;
3597;SDS011;1813;52.016;8.714;2022-09-29T12:08:11;4.37;;;3.43;;
3597;SDS011;1813;52.016;8.714;2022-09-29T12:10:53;3.83;;;2.93;;
3597;SDS011;1813;52.016;8.714;2022-09-29T12:13:34;2.60;;;2.40;;
3597;SDS011;1813;52.016;8.714;2022-09-29T12:16:15;4.10;;;2.90;;
3597;SDS011;1813;52.016;8.714;2022-09-29T12:18:51;6.70;;;3.27;;
3597;SDS011;1813;52.016;8.714;2022-09-29T12:21:29;5.70;;;3.50;;
3597;SDS011;1813;52.016;8.714;2022-09-29T12:24:05;3.50;;;2.87;;
3597;SDS011;1813;52.016;8.714;2022-09-29T12:26:41;3.20;;;2.90;;
3597;SDS011;1813;52.016;8.714;2022-09-29T12:29:18;5.30;;;3.20;;
3597;SDS011;1813;52.016;8.714;2022-09-29T12:32:02;4.10;;;2.70;;
3597;SDS011;1813;52.016;8.714;2022-09-29T12:34:42;5.60;;;2.93;;
3597;SDS011;1813;52.016;8.714;2022-09-29T12:37:19;2.80;;;2.60;;
3597;SDS011;1813;52.016;8.714;2022-09-29T12:39:58;4.33;;;2.73;;
3597;SDS011;1813;52.016;8.714;2022-09-29T12:42:38;5.40;;;3.90;;
3597;SDS011;1813;52.016;8.714;2022-09-29T12:45:21;3.47;;;3.00;;
3597;SDS011;1813;52.016;8.714;2022-09-29T12:48:03;6.00;;;3.07;;
3597;SDS011;1813;52.016;8.714;2022-09-29T12:50:43;4.37;;;3.10;;
3597;SDS011;1813;52.016;8.714;2022-09-29T12:53:21;5.00;;;2.80;;
3597;SDS011;1813;52.016;8.714;2022-09-29T12:55:59;4.57;;;2.70;;
3597;SDS011;1813;52.016;8.714;2022-09-29T12:58:35;5.30;;;2.60;;
3597;SDS011;1813;52.016;8.714;2022-09-29T13:01:20;2.60;;;2.40;;
3597;SDS011;1813;52.016;8.714;2022-09-29T13:10:13;2.90;;;2.60;;
3597;SDS011;1813;52.016;8.714;2022-09-29T13:13:16;6.07;;;3.40;;
3597;SDS011;1813;52.016;8.714;2022-09-29T13:16:04;5.00;;;3.43;;
3597;SDS011;1813;52.016;8.714;2022-09-29T13:18:51;3.30;;;3.00;;
3597;SDS011;1813;52.016;8.714;2022-09-29T13:21:48;4.23;;;2.83;;
3597;SDS011;1813;52.016;8.714;2022-09-29T13:24:34;4.33;;;2.90;;
3597;SDS011;1813;52.016;8.714;2022-09-29T13:27:16;2.87;;;2.63;;
3597;SDS011;1813;52.016;8.714;2022-09-29T13:29:57;4.43;;;3.20;;
3597;SDS011;1813;52.016;8.714;2022-09-29T13:32:37;4.90;;;3.40;;
3597;SDS011;1813;52.016;8.714;2022-09-29T13:35:12;5.67;;;3.70;;
3597;SDS011;1813;52.016;8.714;2022-09-29T13:37:51;6.13;;;3.37;;
3597;SDS011;1813;52.016;8.714;2022-09-29T13:40:27;5.23;;;3.70;;
3597;SDS011;1813;52.016;8.714;2022-09-29T13:43:00;4.23;;;3.83;;
3597;SDS011;1813;52.016;8.714;2022-09-29T13:45:38;6.93;;;3.87;;
3597;SDS011;1813;52.016;8.714;2022-09-29T13:48:35;4.30;;;3.90;;
3597;SDS011;1813;52.016;8.714;2022-09-29T13:51:40;5.30;;;3.80;;
3597;SDS011;1813;52.016;8.714;2022-09-29T14:03:00;3.47;;;3.17;;
3597;SDS011;1813;52.016;8.714;2022-09-29T14:08:44;8.50;;;3.80;;
3597;SDS011;1813;52.016;8.714;2022-09-29T14:11:25;3.30;;;3.00;;
3597;SDS011;1813;52.016;8.714;2022-09-29T14:14:01;5.00;;;3.07;;
3597;SDS011;1813;52.016;8.714;2022-09-29T14:16:46;3.67;;;3.10;;
3597;SDS011;1813;52.016;8.714;2022-09-29T14:19:33;6.17;;;3.20;;
3597;SDS011;1813;52.016;8.714;2022-09-29T14:25:29;4.73;;;3.50;;
3597;SDS011;1813;52.016;8.714;2022-09-29T14:28:32;3.67;;;3.17;;
3597;SDS011;1813;52.016;8.714;2022-09-29T14:31:20;5.73;;;3.50;;
3597;SDS011;1813;52.016;8.714;2022-09-29T14:33:54;7.43;;;3.33;;
3597;SDS011;1813;52.016;8.714;2022-09-29T14:36:30;3.17;;;2.93;;
3597;SDS011;1813;52.016;8.714;2022-09-29T14:39:08;4.53;;;3.70;;
3597;SDS011;1813;52.016;8.714;2022-09-29T14:41:42;4.87;;;3.50;;
3597;SDS011;1813;52.016;8.714;2022-09-29T14:44:19;4.90;;;3.53;;
3597;SDS011;1813;52.016;8.714;2022-09-29T14:47:16;3.80;;;3.27;;
3597;SDS011;1813;52.016;8.714;2022-09-29T14:53:36;3.10;;;2.90;;
3597;SDS011;1813;52.016;8.714;2022-09-29T14:56:20;3.77;;;3.20;;
3597;SDS011;1813;52.016;8.714;2022-09-29T14:59:06;7.77;;;3.50;;
3597;SDS011;1813;52.016;8.714;2022-09-29T15:01:56;5.10;;;3.70;;
3597;SDS011;1813;52.016;8.714;2022-09-29T15:04:47;3.43;;;3.13;;
3597;SDS011;1813;52.016;8.714;2022-09-29T15:07:22;6.17;;;3.43;;
3597;SDS011;1813;52.016;8.714;2022-09-29T15:09:55;5.00;;;3.70;;
3597;SDS011;1813;52.016;8.714;2022-09-29T15:12:29;4.10;;;3.27;;
3597;SDS011;1813;52.016;8.714;2022-09-29T15:15:04;4.17;;;3.47;;
3597;SDS011;1813;52.016;8.714;2022-09-29T15:17:42;5.27;;;3.40;;
3597;SDS011;1813;52.016;8.714;2022-09-29T15:20:21;5.07;;;3.40;;
3597;SDS011;1813;52.016;8.714;2022-09-29T15:23:00;6.20;;;3.40;;
3597;SDS011;1813;52.016;8.714;2022-09-29T15:25:41;4.13;;;3.43;;
3597;SDS011;1813;52.016;8.714;2022-09-29T15:28:16;8.73;;;3.70;;
3597;SDS011;1813;52.016;8.714;2022-09-29T15:30:51;4.67;;;3.30;;
3597;SDS011;1813;52.016;8.714;2022-09-29T15:33:27;3.97;;;3.67;;
3597;SDS011;1813;52.016;8.714;2022-09-29T15:36:01;5.47;;;3.80;;
3597;SDS011;1813;52.016;8.714;2022-09-29T15:38:36;4.50;;;3.40;;
3597;SDS011;1813;52.016;8.714;2022-09-29T15:41:13;3.60;;;3.30;;
3597;SDS011;1813;52.016;8.714;2022-09-29T15:43:51;5.57;;;3.80;;
3597;SDS011;1813;52.016;8.714;2022-09-29T15:46:33;5.10;;;3.90;;
3597;SDS011;1813;52.016;8.714;2022-09-29T15:49:11;3.73;;;3.43;;
3597;SDS011;1813;52.016;8.714;2022-09-29T15:51:53;5.73;;;3.53;;
3597;SDS011;1813;52.016;8.714;2022-09-29T15:54:28;3.27;;;2.97;;
3597;SDS011;1813;52.016;8.714;2022-09-29T15:57:03;3.30;;;3.00;;
3597;SDS011;1813;52.016;8.714;2022-09-29T15:59:54;7.17;;;3.00;;
3597;SDS011;1813;52.016;8.714;2022-09-29T16:02:27;3.30;;;3.10;;
3597;SDS011;1813;52.016;8.714;2022-09-29T16:05:04;3.27;;;2.97;;
3597;SDS011;1813;52.016;8.714;2022-09-29T16:07:47;3.53;;;3.20;;
3597;SDS011;1813;52.016;8.714;2022-09-29T16:10:21;4.87;;;3.50;;
3597;SDS011;1813;52.016;8.714;2022-09-29T16:12:57;5.60;;;4.10;;
3597;SDS011;1813;52.016;8.714;2022-09-29T16:15:33;4.10;;;3.60;;
3597;SDS011;1813;52.016;8.714;2022-09-29T16:18:08;6.00;;;3.90;;
3597;SDS011;1813;52.016;8.714;2022-09-29T16:20:48;6.03;;;4.00;;
3597;SDS011;1813;52.016;8.714;2022-09-29T16:23:22;4.20;;;3.80;;
3597;SDS011;1813;52.016;8.714;2022-09-29T16:26:14;3.67;;;3.37;;
3597;SDS011;1813;52.016;8.714;2022-09-29T16:28:59;5.00;;;3.47;;
3597;SDS011;1813;52.016;8.714;2022-09-29T16:31:36;3.90;;;3.60;;
3597;SDS011;1813;52.016;8.714;2022-09-29T16:34:20;4.73;;;4.00;;
3597;SDS011;1813;52.016;8.714;2022-09-29T16:36:56;6.47;;;3.77;;